createdAt,value
2024-03-16T00:01:56.881Z,97944.22
2024-03-16T00:04:24.617Z,97938.00
2024-03-16T00:06:52.233Z,97941.06
2024-03-16T00:09:21.552Z,97946.41
2024-03-16T00:11:49.185Z,97952.34
2024-03-16T00:14:16.821Z,97947.28
2024-03-16T00:16:44.421Z,97948.19
2024-03-16T00:19:11.999Z,97938.25
2024-03-16T00:21:39.664Z,97958.16
2024-03-16T00:24:09.673Z,97960.59
2024-03-16T00:26:37.341Z,97963.19
2024-03-16T00:29:08.821Z,97945.88
2024-03-16T00:31:36.648Z,97958.03
2024-03-16T00:34:07.236Z,97949.03
2024-03-16T00:36:35.083Z,97942.66
2024-03-16T00:39:03.012Z,97961.25
2024-03-16T00:41:30.620Z,97948.59
2024-03-16T00:43:58.883Z,97966.06
2024-03-16T00:46:26.524Z,97966.84
2024-03-16T00:48:54.322Z,97960.16
2024-03-16T00:51:22.179Z,97962.44
2024-03-16T00:53:49.689Z,97963.97
2024-03-16T00:56:17.327Z,97960.50
2024-03-16T00:58:47.830Z,97982.69
2024-03-16T01:01:15.623Z,97959.41
2024-03-16T01:03:43.444Z,97985.28
2024-03-16T01:06:11.106Z,97979.66
2024-03-16T01:08:38.665Z,97959.06
2024-03-16T01:11:07.386Z,97968.63
2024-03-16T01:13:35.006Z,97977.44
2024-03-16T01:16:03.140Z,97986.41
2024-03-16T01:18:31.313Z,97981.72
2024-03-16T01:20:59.122Z,97988.91
2024-03-16T01:23:26.872Z,97993.00
2024-03-16T01:25:54.518Z,97994.03
2024-03-16T01:28:22.095Z,97986.00
2024-03-16T01:30:50.281Z,98004.81
2024-03-16T01:33:17.934Z,98004.16
2024-03-16T01:35:46.250Z,98015.66
2024-03-16T01:38:13.837Z,98020.13
2024-03-16T01:40:41.857Z,98013.06
2024-03-16T01:43:13.632Z,97994.16
2024-03-16T01:45:42.652Z,98013.56
2024-03-16T01:48:12.858Z,97987.56
2024-03-16T01:50:42.210Z,98001.19
2024-03-16T01:53:13.452Z,97999.16
2024-03-16T01:55:41.084Z,98009.50
2024-03-16T01:58:09.207Z,97982.41
2024-03-16T02:00:37.795Z,98008.47
2024-03-16T02:03:06.210Z,98006.69
2024-03-16T02:05:33.813Z,98006.09
2024-03-16T02:08:02.613Z,98005.59
2024-03-16T02:10:30.381Z,98024.00
2024-03-16T02:12:57.986Z,98009.69
2024-03-16T02:15:25.707Z,98023.31
2024-03-16T02:17:53.203Z,98034.75
2024-03-16T02:20:21.346Z,98037.13
2024-03-16T02:22:51.215Z,98030.94
2024-03-16T02:25:20.165Z,98041.56
2024-03-16T02:27:48.810Z,98047.00
2024-03-16T02:30:16.695Z,98051.31
2024-03-16T02:32:44.351Z,98025.31
2024-03-16T02:35:12.400Z,98037.50
2024-03-16T02:37:40.191Z,98045.50
2024-03-16T02:40:08.751Z,98059.22
2024-03-16T02:42:36.869Z,98057.16
2024-03-16T02:45:05.064Z,98039.00
2024-03-16T02:47:35.550Z,98052.19
2024-03-16T02:50:05.435Z,98030.69
2024-03-16T02:52:34.457Z,98057.91
2024-03-16T02:55:02.222Z,98048.31
2024-03-16T02:57:31.698Z,98070.44
2024-03-16T02:59:59.334Z,98053.19
2024-03-16T03:05:20.856Z,98069.19
2024-03-16T03:07:49.061Z,98075.53
2024-03-16T03:10:17.242Z,98081.59
2024-03-16T03:12:57.542Z,98083.63
2024-03-16T03:15:25.725Z,98087.50
2024-03-16T03:17:53.558Z,98081.09
2024-03-16T03:20:23.786Z,98067.91
2024-03-16T03:22:52.134Z,98081.03
2024-03-16T03:25:23.017Z,98080.09
2024-03-16T03:27:51.076Z,98081.69
2024-03-16T03:30:21.161Z,98096.53
2024-03-16T03:32:48.840Z,98089.78
2024-03-16T03:35:16.449Z,98096.19
2024-03-16T03:37:44.001Z,98100.59
2024-03-16T03:40:11.878Z,98102.66
2024-03-16T03:42:45.640Z,98121.84
2024-03-16T03:45:26.878Z,98113.38
2024-03-16T03:48:26.722Z,98114.03
2024-03-16T03:50:57.318Z,98102.72
2024-03-16T03:53:27.055Z,98120.50
2024-03-16T03:55:55.480Z,98116.88
2024-03-16T03:58:23.794Z,98124.25
2024-03-16T04:00:51.525Z,98120.19
2024-03-16T04:03:19.441Z,98120.00
2024-03-16T04:05:52.041Z,98126.78
2024-03-16T04:08:19.649Z,98118.13
2024-03-16T04:10:47.263Z,98125.06
2024-03-16T04:13:14.923Z,98099.75
2024-03-16T04:15:42.857Z,98129.13
2024-03-16T04:18:10.828Z,98119.22
2024-03-16T04:20:38.593Z,98129.44
2024-03-16T04:23:08.448Z,98144.53
2024-03-16T04:25:36.133Z,98130.19
2024-03-16T04:28:04.152Z,98142.78
2024-03-16T04:30:31.947Z,98148.16
2024-03-16T04:32:59.589Z,98127.50
2024-03-16T04:35:27.248Z,98132.44
2024-03-16T04:37:55.607Z,98131.38
2024-03-16T04:40:23.683Z,98136.66
2024-03-16T04:42:51.485Z,98124.88
2024-03-16T04:45:19.172Z,98123.75
2024-03-16T04:47:46.902Z,98131.59
2024-03-16T04:50:16.787Z,98131.72
2024-03-16T04:52:44.435Z,98130.00
2024-03-16T04:55:12.654Z,98152.97
2024-03-16T04:57:40.440Z,98151.34
2024-03-16T05:00:13.160Z,98165.75
2024-03-16T05:02:40.938Z,98172.03
2024-03-16T05:05:09.699Z,98182.72
2024-03-16T05:07:37.253Z,98170.69
2024-03-16T05:10:06.183Z,98178.41
2024-03-16T05:12:33.850Z,98181.25
2024-03-16T05:15:02.354Z,98184.59
2024-03-16T05:17:32.961Z,98191.97
2024-03-16T05:20:00.584Z,98199.69
2024-03-16T05:22:28.483Z,98191.53
2024-03-16T05:24:56.124Z,98203.72
2024-03-16T05:27:23.738Z,98206.13
2024-03-16T05:29:52.921Z,98214.34
2024-03-16T05:32:20.520Z,98215.69
2024-03-16T05:34:51.385Z,98226.00
2024-03-16T05:37:31.440Z,98233.16
2024-03-16T05:39:59.724Z,98236.44
2024-03-16T05:42:27.486Z,98226.81
2024-03-16T05:44:55.434Z,98243.72
2024-03-16T05:47:23.596Z,98243.50
2024-03-16T05:49:51.258Z,98246.09
2024-03-16T05:52:18.820Z,98230.28
2024-03-16T05:54:46.476Z,98260.25
2024-03-16T05:57:14.419Z,98254.00
2024-03-16T05:59:41.964Z,98255.22
2024-03-16T06:02:09.634Z,98254.81
2024-03-16T06:04:37.440Z,98265.47
2024-03-16T06:07:05.104Z,98252.59
2024-03-16T06:09:32.767Z,98265.63
2024-03-16T06:12:00.406Z,98255.25
2024-03-16T06:14:27.983Z,98271.75
2024-03-16T06:16:55.784Z,98249.66
2024-03-16T06:19:26.158Z,98272.78
2024-03-16T06:21:53.807Z,98285.69
2024-03-16T06:24:24.963Z,98284.09
2024-03-16T06:27:01.939Z,98289.63
2024-03-16T06:29:32.282Z,98289.72
2024-03-16T06:32:07.044Z,98295.91
2024-03-16T06:34:35.385Z,98296.16
2024-03-16T06:37:03.064Z,98292.03
2024-03-16T06:39:31.353Z,98297.94
2024-03-16T06:41:58.916Z,98289.53
2024-03-16T06:44:26.568Z,98283.44
2024-03-16T06:46:54.319Z,98291.41
2024-03-16T06:49:21.942Z,98285.72
2024-03-16T06:51:49.609Z,98301.31
2024-03-16T06:54:17.280Z,98277.78
2024-03-16T06:56:44.919Z,98287.53
2024-03-16T06:59:12.622Z,98288.09
2024-03-16T07:01:40.216Z,98280.34
2024-03-16T07:04:10.468Z,98284.75
2024-03-16T07:06:38.225Z,98293.03
2024-03-16T07:09:09.916Z,98279.81
2024-03-16T07:11:37.554Z,98268.25
2024-03-16T07:14:05.481Z,98277.97
2024-03-16T07:16:33.174Z,98272.81
2024-03-16T07:19:00.767Z,98271.53
2024-03-16T07:21:29.778Z,98266.88
2024-03-16T07:23:58.070Z,98267.38
2024-03-16T07:26:25.733Z,98279.13
2024-03-16T07:28:53.379Z,98269.28
2024-03-16T07:31:21.224Z,98287.38
2024-03-16T07:33:48.943Z,98289.06
2024-03-16T07:36:16.653Z,98295.22
2024-03-16T07:38:44.274Z,98291.69
2024-03-16T07:41:11.933Z,98290.34
2024-03-16T07:43:39.477Z,98287.41
2024-03-16T07:46:07.888Z,98272.69
2024-03-16T07:48:37.153Z,98280.97
2024-03-16T07:51:07.680Z,98285.44
2024-03-16T07:53:35.300Z,98286.88
2024-03-16T07:56:21.384Z,98291.50
2024-03-16T07:58:49.157Z,98275.53
2024-03-16T08:01:17.882Z,98281.03
2024-03-16T08:03:45.711Z,98274.25
2024-03-16T08:06:13.420Z,98278.44
2024-03-16T08:08:43.397Z,98281.06
2024-03-16T08:11:12.598Z,98284.78
2024-03-16T08:13:40.356Z,98284.44
2024-03-16T08:16:26.033Z,98285.25
2024-03-16T08:18:53.807Z,98296.69
2024-03-16T08:21:21.594Z,98294.03
2024-03-16T08:23:49.314Z,98301.00
2024-03-16T08:26:17.142Z,98299.41
2024-03-16T08:29:03.676Z,98298.75
2024-03-16T08:31:31.334Z,98296.34
2024-03-16T08:33:58.915Z,98305.03
2024-03-16T08:36:26.771Z,98313.25
2024-03-16T08:38:54.427Z,98305.47
2024-03-16T08:41:22.013Z,98310.81
2024-03-16T08:43:49.627Z,98300.06
2024-03-16T08:46:17.297Z,98306.31
2024-03-16T08:48:47.191Z,98322.13
2024-03-16T08:51:14.991Z,98327.22
2024-03-16T08:53:43.127Z,98325.41
2024-03-16T08:56:10.746Z,98339.66
2024-03-16T08:58:38.408Z,98322.59
2024-03-16T09:01:06.517Z,98328.19
2024-03-16T09:03:34.295Z,98325.94
2024-03-16T09:06:03.078Z,98319.47
2024-03-16T09:08:32.384Z,98338.25
2024-03-16T09:11:00.042Z,98333.00
2024-03-16T09:13:27.657Z,98329.91
2024-03-16T09:15:55.328Z,98339.28
2024-03-16T09:18:22.984Z,98340.09
2024-03-16T09:20:50.588Z,98337.97
2024-03-16T09:23:18.330Z,98330.25
2024-03-16T09:25:48.107Z,98331.16
2024-03-16T09:28:16.094Z,98328.75
2024-03-16T09:30:46.616Z,98335.88
2024-03-16T09:33:14.450Z,98332.28
2024-03-16T09:35:43.420Z,98344.25
2024-03-16T09:38:13.928Z,98348.13
2024-03-16T09:40:44.945Z,98347.63
